sensor_id;sensor_type;location;lat;lon;timestamp;P1;durP1;ratioP1;P2;durP2;ratioP2
29984;SDS011;17387;42.690;23.328;2022-12-24T00:02:24;106.07;;;57.00;;
29984;SDS011;17387;42.690;23.328;2022-12-24T00:04:50;102.63;;;58.08;;
29984;SDS011;17387;42.690;23.328;2022-12-24T00:07:23;97.93;;;54.92;;
29984;SDS011;17387;42.690;23.328;2022-12-24T00:09:49;101.40;;;56.25;;
29984;SDS011;17387;42.690;23.328;2022-12-24T00:12:14;101.32;;;57.92;;
29984;SDS011;17387;42.690;23.328;2022-12-24T00:14:40;104.55;;;56.97;;
29984;SDS011;17387;42.690;23.328;2022-12-24T00:17:05;106.32;;;56.67;;
29984;SDS011;17387;42.690;23.328;2022-12-24T00:19:31;101.57;;;56.28;;
29984;SDS011;17387;42.690;23.328;2022-12-24T00:21:56;105.05;;;56.80;;
29984;SDS011;17387;42.690;23.328;2022-12-24T00:24:21;105.40;;;58.38;;
29984;SDS011;17387;42.690;23.328;2022-12-24T00:26:47;104.90;;;57.75;;
29984;SDS011;17387;42.690;23.328;2022-12-24T00:29:12;100.88;;;56.50;;
29984;SDS011;17387;42.690;23.328;2022-12-24T00:31:37;96.07;;;56.28;;
29984;SDS011;17387;42.690;23.328;2022-12-24T00:34:03;100.55;;;55.05;;
29984;SDS011;17387;42.690;23.328;2022-12-24T00:36:28;97.13;;;53.72;;
29984;SDS011;17387;42.690;23.328;2022-12-24T00:38:54;94.00;;;54.38;;
29984;SDS011;17387;42.690;23.328;2022-12-24T00:41:19;102.13;;;54.45;;
29984;SDS011;17387;42.690;23.328;2022-12-24T00:43:56;103.10;;;53.30;;
29984;SDS011;17387;42.690;23.328;2022-12-24T00:46:28;108.65;;;57.65;;
29984;SDS011;17387;42.690;23.328;2022-12-24T00:48:55;101.60;;;55.80;;
29984;SDS011;17387;42.690;23.328;2022-12-24T00:51:21;103.35;;;55.47;;
29984;SDS011;17387;42.690;23.328;2022-12-24T00:53:47;111.38;;;59.20;;
29984;SDS011;17387;42.690;23.328;2022-12-24T00:56:14;116.60;;;64.80;;
29984;SDS011;17387;42.690;23.328;2022-12-24T00:58:39;140.18;;;73.75;;
29984;SDS011;17387;42.690;23.328;2022-12-24T01:01:05;138.68;;;78.47;;
29984;SDS011;17387;42.690;23.328;2022-12-24T01:03:31;161.90;;;89.72;;
29984;SDS011;17387;42.690;23.328;2022-12-24T01:06:04;163.88;;;89.85;;
29984;SDS011;17387;42.690;23.328;2022-12-24T01:08:34;144.32;;;81.50;;
29984;SDS011;17387;42.690;23.328;2022-12-24T01:11:00;155.15;;;86.70;;
29984;SDS011;17387;42.690;23.328;2022-12-24T01:13:26;158.05;;;91.75;;
29984;SDS011;17387;42.690;23.328;2022-12-24T01:15:52;262.98;;;152.88;;
29984;SDS011;17387;42.690;23.328;2022-12-24T01:18:17;254.57;;;145.07;;
29984;SDS011;17387;42.690;23.328;2022-12-24T01:20:43;263.30;;;148.93;;
29984;SDS011;17387;42.690;23.328;2022-12-24T01:23:08;277.70;;;158.50;;
29984;SDS011;17387;42.690;23.328;2022-12-24T01:25:36;290.98;;;167.73;;
29984;SDS011;17387;42.690;23.328;2022-12-24T01:28:02;284.52;;;167.05;;
29984;SDS011;17387;42.690;23.328;2022-12-24T01:30:28;271.30;;;156.38;;
29984;SDS011;17387;42.690;23.328;2022-12-24T01:32:53;259.38;;;146.88;;
29984;SDS011;17387;42.690;23.328;2022-12-24T01:35:18;221.13;;;126.20;;
29984;SDS011;17387;42.690;23.328;2022-12-24T01:37:44;184.55;;;103.63;;
29984;SDS011;17387;42.690;23.328;2022-12-24T01:40:12;151.00;;;87.65;;
29984;SDS011;17387;42.690;23.328;2022-12-24T01:43:04;189.35;;;110.07;;
29984;SDS011;17387;42.690;23.328;2022-12-24T01:50:58;149.10;;;85.72;;
29984;SDS011;17387;42.690;23.328;2022-12-24T01:53:28;157.55;;;86.85;;
29984;SDS011;17387;42.690;23.328;2022-12-24T01:55:55;154.60;;;87.65;;
29984;SDS011;17387;42.690;23.328;2022-12-24T01:58:21;164.23;;;91.95;;
29984;SDS011;17387;42.690;23.328;2022-12-24T02:00:49;168.10;;;96.85;;
29984;SDS011;17387;42.690;23.328;2022-12-24T02:03:15;204.80;;;112.55;;
29984;SDS011;17387;42.690;23.328;2022-12-24T02:05:43;203.75;;;115.25;;
29984;SDS011;17387;42.690;23.328;2022-12-24T02:08:11;228.35;;;130.55;;
29984;SDS011;17387;42.690;23.328;2022-12-24T02:10:38;226.57;;;126.25;;
29984;SDS011;17387;42.690;23.328;2022-12-24T02:13:04;225.15;;;129.43;;
29984;SDS011;17387;42.690;23.328;2022-12-24T02:15:33;220.70;;;123.90;;
29984;SDS011;17387;42.690;23.328;2022-12-24T02:32:44;210.68;;;118.40;;
29984;SDS011;17387;42.690;23.328;2022-12-24T02:37:46;206.45;;;115.20;;
29984;SDS011;17387;42.690;23.328;2022-12-24T02:40:19;187.73;;;104.90;;
29984;SDS011;17387;42.690;23.328;2022-12-24T02:42:53;152.45;;;80.78;;
29984;SDS011;17387;42.690;23.328;2022-12-24T02:45:27;147.35;;;79.95;;
29984;SDS011;17387;42.690;23.328;2022-12-24T02:47:55;138.30;;;74.20;;
29984;SDS011;17387;42.690;23.328;2022-12-24T02:50:22;136.18;;;75.75;;
29984;SDS011;17387;42.690;23.328;2022-12-24T02:52:48;158.52;;;89.88;;
29984;SDS011;17387;42.690;23.328;2022-12-24T03:00:31;200.65;;;113.05;;
29984;SDS011;17387;42.690;23.328;2022-12-24T03:12:14;270.20;;;150.45;;
29984;SDS011;17387;42.690;23.328;2022-12-24T03:14:44;255.30;;;137.90;;
29984;SDS011;17387;42.690;23.328;2022-12-24T03:17:12;232.00;;;126.63;;
29984;SDS011;17387;42.690;23.328;2022-12-24T03:19:39;253.00;;;141.70;;
29984;SDS011;17387;42.690;23.328;2022-12-24T03:22:07;256.58;;;139.80;;
29984;SDS011;17387;42.690;23.328;2022-12-24T03:24:35;242.52;;;136.38;;
29984;SDS011;17387;42.690;23.328;2022-12-24T03:27:01;238.25;;;134.13;;
29984;SDS011;17387;42.690;23.328;2022-12-24T03:29:30;238.07;;;135.55;;
29984;SDS011;17387;42.690;23.328;2022-12-24T03:32:00;233.15;;;131.23;;
29984;SDS011;17387;42.690;23.328;2022-12-24T03:36:53;234.57;;;130.55;;
29984;SDS011;17387;42.690;23.328;2022-12-24T03:39:18;235.65;;;131.85;;
29984;SDS011;17387;42.690;23.328;2022-12-24T03:41:43;234.07;;;132.05;;
29984;SDS011;17387;42.690;23.328;2022-12-24T03:44:09;236.57;;;134.60;;
29984;SDS011;17387;42.690;23.328;2022-12-24T03:46:34;241.15;;;136.15;;
29984;SDS011;17387;42.690;23.328;2022-12-24T03:49:00;244.60;;;136.73;;
29984;SDS011;17387;42.690;23.328;2022-12-24T03:51:26;242.93;;;139.07;;
29984;SDS011;17387;42.690;23.328;2022-12-24T03:53:52;243.05;;;138.13;;
29984;SDS011;17387;42.690;23.328;2022-12-24T03:56:22;244.07;;;140.80;;
29984;SDS011;17387;42.690;23.328;2022-12-24T03:58:48;241.20;;;136.27;;
29984;SDS011;17387;42.690;23.328;2022-12-24T04:01:14;233.07;;;136.57;;
29984;SDS011;17387;42.690;23.328;2022-12-24T04:03:40;241.85;;;137.18;;
29984;SDS011;17387;42.690;23.328;2022-12-24T04:06:07;239.93;;;139.00;;
29984;SDS011;17387;42.690;23.328;2022-12-24T04:08:34;245.55;;;141.63;;
29984;SDS011;17387;42.690;23.328;2022-12-24T04:11:00;245.07;;;142.57;;
29984;SDS011;17387;42.690;23.328;2022-12-24T04:13:25;248.55;;;143.40;;
29984;SDS011;17387;42.690;23.328;2022-12-24T04:16:00;238.30;;;136.73;;
29984;SDS011;17387;42.690;23.328;2022-12-24T04:18:27;232.38;;;133.75;;
29984;SDS011;17387;42.690;23.328;2022-12-24T04:20:53;224.63;;;130.70;;
29984;SDS011;17387;42.690;23.328;2022-12-24T04:23:18;217.27;;;127.32;;
29984;SDS011;17387;42.690;23.328;2022-12-24T04:25:44;223.15;;;128.77;;
29984;SDS011;17387;42.690;23.328;2022-12-24T04:28:09;207.32;;;121.93;;
29984;SDS011;17387;42.690;23.328;2022-12-24T04:30:36;208.02;;;121.35;;
29984;SDS011;17387;42.690;23.328;2022-12-24T04:33:02;197.57;;;118.57;;
29984;SDS011;17387;42.690;23.328;2022-12-24T04:35:28;201.50;;;116.90;;
29984;SDS011;17387;42.690;23.328;2022-12-24T04:37:53;199.48;;;113.93;;
29984;SDS011;17387;42.690;23.328;2022-12-24T04:40:18;201.95;;;113.22;;
29984;SDS011;17387;42.690;23.328;2022-12-24T04:42:44;195.07;;;110.47;;
29984;SDS011;17387;42.690;23.328;2022-12-24T04:45:09;183.10;;;102.90;;
29984;SDS011;17387;42.690;23.328;2022-12-24T04:47:35;175.55;;;103.45;;
29984;SDS011;17387;42.690;23.328;2022-12-24T04:50:00;177.02;;;101.22;;
29984;SDS011;17387;42.690;23.328;2022-12-24T04:52:26;169.00;;;101.03;;
29984;SDS011;17387;42.690;23.328;2022-12-24T04:54:51;169.73;;;98.93;;
29984;SDS011;17387;42.690;23.328;2022-12-24T04:57:17;167.43;;;98.28;;
29984;SDS011;17387;42.690;23.328;2022-12-24T04:59:42;166.25;;;96.72;;
29984;SDS011;17387;42.690;23.328;2022-12-24T05:02:08;170.32;;;100.18;;
29984;SDS011;17387;42.690;23.328;2022-12-24T05:04:34;170.07;;;101.75;;
29984;SDS011;17387;42.690;23.328;2022-12-24T05:06:59;179.50;;;103.18;;
29984;SDS011;17387;42.690;23.328;2022-12-24T05:09:25;177.98;;;107.93;;
29984;SDS011;17387;42.690;23.328;2022-12-24T05:11:50;182.27;;;105.43;;
29984;SDS011;17387;42.690;23.328;2022-12-24T05:14:16;188.20;;;111.13;;
29984;SDS011;17387;42.690;23.328;2022-12-24T05:16:41;190.52;;;111.63;;
29984;SDS011;17387;42.690;23.328;2022-12-24T05:19:07;182.18;;;105.55;;
29984;SDS011;17387;42.690;23.328;2022-12-24T05:21:33;186.48;;;106.82;;
29984;SDS011;17387;42.690;23.328;2022-12-24T05:23:59;187.43;;;108.90;;
29984;SDS011;17387;42.690;23.328;2022-12-24T05:29:18;166.05;;;95.75;;
29984;SDS011;17387;42.690;23.328;2022-12-24T05:31:44;163.65;;;92.80;;
29984;SDS011;17387;42.690;23.328;2022-12-24T05:34:10;168.02;;;94.70;;
29984;SDS011;17387;42.690;23.328;2022-12-24T05:36:37;164.27;;;92.25;;
29984;SDS011;17387;42.690;23.328;2022-12-24T05:39:03;159.98;;;90.55;;
29984;SDS011;17387;42.690;23.328;2022-12-24T05:41:29;152.63;;;90.05;;
29984;SDS011;17387;42.690;23.328;2022-12-24T05:43:54;153.27;;;86.93;;
29984;SDS011;17387;42.690;23.328;2022-12-24T05:46:21;156.82;;;91.07;;
29984;SDS011;17387;42.690;23.328;2022-12-24T05:48:47;182.38;;;103.60;;
29984;SDS011;17387;42.690;23.328;2022-12-24T05:51:13;155.65;;;88.13;;
29984;SDS011;17387;42.690;23.328;2022-12-24T05:53:42;149.85;;;86.28;;
29984;SDS011;17387;42.690;23.328;2022-12-24T05:56:09;147.52;;;83.88;;
29984;SDS011;17387;42.690;23.328;2022-12-24T05:58:36;138.88;;;81.93;;
29984;SDS011;17387;42.690;23.328;2022-12-24T06:01:02;144.77;;;84.00;;
29984;SDS011;17387;42.690;23.328;2022-12-24T06:03:29;146.23;;;83.40;;
29984;SDS011;17387;42.690;23.328;2022-12-24T06:05:59;138.63;;;82.55;;
29984;SDS011;17387;42.690;23.328;2022-12-24T06:08:26;140.27;;;82.05;;
29984;SDS011;17387;42.690;23.328;2022-12-24T06:10:56;151.32;;;81.43;;
29984;SDS011;17387;42.690;23.328;2022-12-24T06:13:23;142.48;;;81.18;;
29984;SDS011;17387;42.690;23.328;2022-12-24T06:15:49;149.30;;;82.10;;
29984;SDS011;17387;42.690;23.328;2022-12-24T06:18:15;136.95;;;79.90;;
29984;SDS011;17387;42.690;23.328;2022-12-24T06:20:40;147.80;;;85.55;;
29984;SDS011;17387;42.690;23.328;2022-12-24T06:23:06;148.35;;;82.20;;
29984;SDS011;17387;42.690;23.328;2022-12-24T06:25:31;137.52;;;78.60;;
29984;SDS011;17387;42.690;23.328;2022-12-24T06:27:57;150.40;;;84.15;;
29984;SDS011;17387;42.690;23.328;2022-12-24T06:30:22;150.85;;;86.65;;
29984;SDS011;17387;42.690;23.328;2022-12-24T06:32:48;161.05;;;88.75;;
29984;SDS011;17387;42.690;23.328;2022-12-24T06:35:14;167.18;;;92.57;;
29984;SDS011;17387;42.690;23.328;2022-12-24T06:37:39;196.43;;;101.88;;
29984;SDS011;17387;42.690;23.328;2022-12-24T06:40:04;263.35;;;122.90;;
29984;SDS011;17387;42.690;23.328;2022-12-24T06:42:30;260.17;;;125.90;;
29984;SDS011;17387;42.690;23.328;2022-12-24T06:44:56;232.55;;;115.38;;
29984;SDS011;17387;42.690;23.328;2022-12-24T06:47:21;258.42;;;127.82;;
29984;SDS011;17387;42.690;23.328;2022-12-24T06:49:46;215.48;;;111.03;;
29984;SDS011;17387;42.690;23.328;2022-12-24T06:52:13;200.18;;;106.68;;
29984;SDS011;17387;42.690;23.328;2022-12-24T06:54:38;180.13;;;100.07;;
29984;SDS011;17387;42.690;23.328;2022-12-24T06:57:03;171.20;;;93.65;;
29984;SDS011;17387;42.690;23.328;2022-12-24T06:59:30;166.35;;;89.90;;
29984;SDS011;17387;42.690;23.328;2022-12-24T07:01:56;161.65;;;89.90;;
29984;SDS011;17387;42.690;23.328;2022-12-24T07:04:21;158.35;;;90.28;;
29984;SDS011;17387;42.690;23.328;2022-12-24T07:06:47;176.23;;;96.65;;
29984;SDS011;17387;42.690;23.328;2022-12-24T07:09:13;163.65;;;95.50;;
29984;SDS011;17387;42.690;23.328;2022-12-24T07:11:39;166.38;;;94.38;;
29984;SDS011;17387;42.690;23.328;2022-12-24T07:14:25;160.40;;;94.50;;
29984;SDS011;17387;42.690;23.328;2022-12-24T07:16:50;170.57;;;93.88;;
29984;SDS011;17387;42.690;23.328;2022-12-24T07:19:17;164.52;;;91.93;;
29984;SDS011;17387;42.690;23.328;2022-12-24T07:21:42;157.73;;;91.20;;
29984;SDS011;17387;42.690;23.328;2022-12-24T07:24:08;163.18;;;92.45;;
29984;SDS011;17387;42.690;23.328;2022-12-24T07:26:33;166.55;;;95.97;;
29984;SDS011;17387;42.690;23.328;2022-12-24T07:28:59;181.40;;;101.03;;
29984;SDS011;17387;42.690;23.328;2022-12-24T07:31:24;173.05;;;97.10;;
29984;SDS011;17387;42.690;23.328;2022-12-24T07:33:50;174.30;;;98.13;;
29984;SDS011;17387;42.690;23.328;2022-12-24T07:36:19;193.18;;;108.85;;
29984;SDS011;17387;42.690;23.328;2022-12-24T07:38:46;160.13;;;92.90;;
29984;SDS011;17387;42.690;23.328;2022-12-24T07:41:12;170.45;;;97.07;;
29984;SDS011;17387;42.690;23.328;2022-12-24T07:43:38;155.18;;;89.55;;
29984;SDS011;17387;42.690;23.328;2022-12-24T07:46:03;141.90;;;86.60;;
29984;SDS011;17387;42.690;23.328;2022-12-24T07:48:29;162.63;;;91.38;;
29984;SDS011;17387;42.690;23.328;2022-12-24T07:50:55;165.85;;;92.50;;
29984;SDS011;17387;42.690;23.328;2022-12-24T07:53:21;149.77;;;87.70;;
29984;SDS011;17387;42.690;23.328;2022-12-24T07:55:47;148.90;;;86.78;;
29984;SDS011;17387;42.690;23.328;2022-12-24T07:58:13;153.75;;;89.40;;
29984;SDS011;17387;42.690;23.328;2022-12-24T08:00:39;156.02;;;92.68;;
29984;SDS011;17387;42.690;23.328;2022-12-24T08:03:04;145.02;;;83.57;;
29984;SDS011;17387;42.690;23.328;2022-12-24T08:05:34;141.65;;;84.53;;
29984;SDS011;17387;42.690;23.328;2022-12-24T08:08:00;142.32;;;82.65;;
29984;SDS011;17387;42.690;23.328;2022-12-24T08:10:26;135.15;;;78.25;;
29984;SDS011;17387;42.690;23.328;2022-12-24T08:12:54;135.93;;;78.97;;
29984;SDS011;17387;42.690;23.328;2022-12-24T08:15:19;145.90;;;83.78;;
29984;SDS011;17387;42.690;23.328;2022-12-24T08:17:45;147.43;;;83.35;;
29984;SDS011;17387;42.690;23.328;2022-12-24T08:20:10;148.20;;;83.10;;
29984;SDS011;17387;42.690;23.328;2022-12-24T08:22:36;147.10;;;84.78;;
29984;SDS011;17387;42.690;23.328;2022-12-24T08:25:02;159.93;;;89.15;;
29984;SDS011;17387;42.690;23.328;2022-12-24T08:27:28;164.85;;;93.72;;
29984;SDS011;17387;42.690;23.328;2022-12-24T08:29:53;154.40;;;92.18;;
29984;SDS011;17387;42.690;23.328;2022-12-24T08:32:19;165.65;;;91.93;;
29984;SDS011;17387;42.690;23.328;2022-12-24T08:34:47;169.52;;;94.70;;
29984;SDS011;17387;42.690;23.328;2022-12-24T08:37:12;174.75;;;96.28;;
29984;SDS011;17387;42.690;23.328;2022-12-24T08:39:38;173.80;;;95.53;;
29984;SDS011;17387;42.690;23.328;2022-12-24T08:42:03;174.73;;;94.18;;
29984;SDS011;17387;42.690;23.328;2022-12-24T08:44:29;169.70;;;94.70;;
29984;SDS011;17387;42.690;23.328;2022-12-24T08:46:54;161.07;;;89.50;;
29984;SDS011;17387;42.690;23.328;2022-12-24T08:49:19;154.52;;;88.05;;
29984;SDS011;17387;42.690;23.328;2022-12-24T08:51:45;158.55;;;89.35;;
29984;SDS011;17387;42.690;23.328;2022-12-24T08:54:10;139.95;;;74.22;;
29984;SDS011;17387;42.690;23.328;2022-12-24T08:56:36;104.80;;;58.45;;
29984;SDS011;17387;42.690;23.328;2022-12-24T08:59:01;98.97;;;56.85;;
29984;SDS011;17387;42.690;23.328;2022-12-24T09:01:27;118.13;;;66.82;;
29984;SDS011;17387;42.690;23.328;2022-12-24T09:03:52;149.02;;;81.45;;
29984;SDS011;17387;42.690;23.328;2022-12-24T09:06:18;133.25;;;79.13;;
29984;SDS011;17387;42.690;23.328;2022-12-24T09:08:43;132.95;;;74.10;;
29984;SDS011;17387;42.690;23.328;2022-12-24T09:11:10;123.78;;;72.25;;
29984;SDS011;17387;42.690;23.328;2022-12-24T09:13:38;105.75;;;61.70;;
29984;SDS011;17387;42.690;23.328;2022-12-24T09:16:04;110.05;;;62.42;;
29984;SDS011;17387;42.690;23.328;2022-12-24T09:18:31;129.32;;;75.28;;
29984;SDS011;17387;42.690;23.328;2022-12-24T09:20:57;145.75;;;85.75;;
29984;SDS011;17387;42.690;23.328;2022-12-24T09:23:42;160.95;;;89.97;;
29984;SDS011;17387;42.690;23.328;2022-12-24T09:26:11;168.48;;;97.65;;
29984;SDS011;17387;42.690;23.328;2022-12-24T09:28:39;174.80;;;100.22;;
29984;SDS011;17387;42.690;23.328;2022-12-24T09:31:04;188.70;;;107.97;;
29984;SDS011;17387;42.690;23.328;2022-12-24T09:33:32;192.98;;;110.07;;
29984;SDS011;17387;42.690;23.328;2022-12-24T09:36:00;183.23;;;106.47;;
29984;SDS011;17387;42.690;23.328;2022-12-24T09:38:26;182.02;;;103.93;;
29984;SDS011;17387;42.690;23.328;2022-12-24T09:40:52;173.13;;;103.28;;
29984;SDS011;17387;42.690;23.328;2022-12-24T09:45:52;152.02;;;91.80;;
29984;SDS011;17387;42.690;23.328;2022-12-24T09:48:28;152.32;;;91.32;;
29984;SDS011;17387;42.690;23.328;2022-12-24T09:53:39;156.55;;;93.60;;
29984;SDS011;17387;42.690;23.328;2022-12-24T09:56:10;158.93;;;90.35;;
29984;SDS011;17387;42.690;23.328;2022-12-24T09:58:42;144.55;;;88.18;;
29984;SDS011;17387;42.690;23.328;2022-12-24T10:01:15;153.55;;;88.88;;
29984;SDS011;17387;42.690;23.328;2022-12-24T10:03:42;156.38;;;89.03;;
29984;SDS011;17387;42.690;23.328;2022-12-24T10:06:13;147.93;;;87.88;;
29984;SDS011;17387;42.690;23.328;2022-12-24T10:11:28;163.30;;;95.22;;
29984;SDS011;17387;42.690;23.328;2022-12-24T10:14:30;152.88;;;93.38;;
29984;SDS011;17387;42.690;23.328;2022-12-24T10:17:11;141.95;;;86.95;;
29984;SDS011;17387;42.690;23.328;2022-12-24T10:22:55;141.57;;;79.82;;
29984;SDS011;17387;42.690;23.328;2022-12-24T10:28:16;108.90;;;62.22;;
29984;SDS011;17387;42.690;23.328;2022-12-24T10:30:46;100.80;;;58.45;;
29984;SDS011;17387;42.690;23.328;2022-12-24T10:33:17;108.10;;;60.85;;
29984;SDS011;17387;42.690;23.328;2022-12-24T10:38:13;103.40;;;58.90;;
29984;SDS011;17387;42.690;23.328;2022-12-24T10:43:18;98.80;;;57.17;;
29984;SDS011;17387;42.690;23.328;2022-12-24T10:54:14;93.30;;;51.13;;
29984;SDS011;17387;42.690;23.328;2022-12-24T10:56:44;94.28;;;54.28;;
29984;SDS011;17387;42.690;23.328;2022-12-24T11:01:58;85.03;;;51.85;;
29984;SDS011;17387;42.690;23.328;2022-12-24T11:04:28;93.18;;;55.28;;
29984;SDS011;17387;42.690;23.328;2022-12-24T11:09:25;88.03;;;53.38;;
29984;SDS011;17387;42.690;23.328;2022-12-24T11:11:54;91.75;;;52.55;;
29984;SDS011;17387;42.690;23.328;2022-12-24T11:14:24;88.13;;;52.70;;
29984;SDS011;17387;42.690;23.328;2022-12-24T11:16:52;90.32;;;54.83;;
29984;SDS011;17387;42.690;23.328;2022-12-24T11:19:28;94.90;;;53.67;;
29984;SDS011;17387;42.690;23.328;2022-12-24T11:22:04;101.97;;;57.47;;
29984;SDS011;17387;42.690;23.328;2022-12-24T11:24:33;92.65;;;58.13;;
29984;SDS011;17387;42.690;23.328;2022-12-24T11:32:48;93.28;;;53.92;;
29984;SDS011;17387;42.690;23.328;2022-12-24T11:35:38;85.50;;;52.55;;
29984;SDS011;17387;42.690;23.328;2022-12-24T11:38:08;81.03;;;49.28;;
29984;SDS011;17387;42.690;23.328;2022-12-24T11:40:37;75.15;;;47.22;;
29984;SDS011;17387;42.690;23.328;2022-12-24T11:43:05;76.45;;;45.65;;
29984;SDS011;17387;42.690;23.328;2022-12-24T11:45:31;94.28;;;53.03;;
29984;SDS011;17387;42.690;23.328;2022-12-24T11:47:58;76.15;;;45.65;;
29984;SDS011;17387;42.690;23.328;2022-12-24T11:50:26;73.78;;;46.28;;
29984;SDS011;17387;42.690;23.328;2022-12-24T11:58:27;50.72;;;31.33;;
29984;SDS011;17387;42.690;23.328;2022-12-24T12:01:23;45.42;;;29.25;;
29984;SDS011;17387;42.690;23.328;2022-12-24T12:04:05;52.25;;;32.83;;
29984;SDS011;17387;42.690;23.328;2022-12-24T12:06:37;43.42;;;26.40;;
29984;SDS011;17387;42.690;23.328;2022-12-24T12:09:19;50.28;;;30.13;;
29984;SDS011;17387;42.690;23.328;2022-12-24T12:11:54;47.97;;;29.55;;
29984;SDS011;17387;42.690;23.328;2022-12-24T12:14:33;50.42;;;31.42;;
29984;SDS011;17387;42.690;23.328;2022-12-24T12:22:58;59.97;;;38.38;;
29984;SDS011;17387;42.690;23.328;2022-12-24T12:28:07;77.93;;;45.92;;
29984;SDS011;17387;42.690;23.328;2022-12-24T12:30:42;72.20;;;46.42;;
29984;SDS011;17387;42.690;23.328;2022-12-24T12:35:38;69.47;;;43.40;;
29984;SDS011;17387;42.690;23.328;2022-12-24T12:38:12;69.63;;;44.28;;
29984;SDS011;17387;42.690;23.328;2022-12-24T12:59:46;120.13;;;72.10;;
29984;SDS011;17387;42.690;23.328;2022-12-24T13:08:09;120.68;;;70.97;;
29984;SDS011;17387;42.690;23.328;2022-12-24T13:21:23;115.75;;;71.20;;
29984;SDS011;17387;42.690;23.328;2022-12-24T13:37:43;135.30;;;78.28;;
29984;SDS011;17387;42.690;23.328;2022-12-24T13:47:56;113.45;;;71.10;;
29984;SDS011;17387;42.690;23.328;2022-12-24T13:50:39;111.43;;;68.75;;
29984;SDS011;17387;42.690;23.328;2022-12-24T13:53:31;122.25;;;68.63;;
29984;SDS011;17387;42.690;23.328;2022-12-24T13:56:18;110.10;;;67.93;;
29984;SDS011;17387;42.690;23.328;2022-12-24T13:58:49;126.65;;;71.72;;
29984;SDS011;17387;42.690;23.328;2022-12-24T14:01:20;114.28;;;69.55;;
29984;SDS011;17387;42.690;23.328;2022-12-24T14:03:57;114.05;;;67.80;;
29984;SDS011;17387;42.690;23.328;2022-12-24T14:06:38;108.88;;;64.22;;
29984;SDS011;17387;42.690;23.328;2022-12-24T14:14:32;96.97;;;60.63;;
29984;SDS011;17387;42.690;23.328;2022-12-24T14:19:39;105.57;;;59.92;;
29984;SDS011;17387;42.690;23.328;2022-12-24T14:24:53;106.85;;;65.50;;
29984;SDS011;17387;42.690;23.328;2022-12-24T14:30:18;117.55;;;67.40;;
29984;SDS011;17387;42.690;23.328;2022-12-24T14:32:45;120.88;;;75.82;;
29984;SDS011;17387;42.690;23.328;2022-12-24T14:37:57;128.20;;;77.28;;
29984;SDS011;17387;42.690;23.328;2022-12-24T14:40:29;127.40;;;79.38;;
29984;SDS011;17387;42.690;23.328;2022-12-24T14:43:00;130.27;;;79.65;;
29984;SDS011;17387;42.690;23.328;2022-12-24T14:45:34;130.25;;;84.30;;
29984;SDS011;17387;42.690;23.328;2022-12-24T14:48:24;135.30;;;86.28;;
29984;SDS011;17387;42.690;23.328;2022-12-24T14:59:49;92.93;;;54.63;;
29984;SDS011;17387;42.690;23.328;2022-12-24T15:07:59;61.75;;;34.17;;
29984;SDS011;17387;42.690;23.328;2022-12-24T15:10:28;53.63;;;32.88;;
29984;SDS011;17387;42.690;23.328;2022-12-24T15:13:06;58.78;;;33.67;;
29984;SDS011;17387;42.690;23.328;2022-12-24T15:15:41;48.88;;;27.52;;
29984;SDS011;17387;42.690;23.328;2022-12-24T15:18:09;40.65;;;23.85;;
29984;SDS011;17387;42.690;23.328;2022-12-24T15:20:41;39.80;;;23.63;;
29984;SDS011;17387;42.690;23.328;2022-12-24T15:23:16;32.10;;;19.67;;
29984;SDS011;17387;42.690;23.328;2022-12-24T15:26:07;31.38;;;17.70;;
29984;SDS011;17387;42.690;23.328;2022-12-24T15:28:42;27.88;;;17.13;;
29984;SDS011;17387;42.690;23.328;2022-12-24T15:31:12;25.58;;;15.68;;
29984;SDS011;17387;42.690;23.328;2022-12-24T15:33:39;24.08;;;15.27;;
29984;SDS011;17387;42.690;23.328;2022-12-24T15:36:08;23.23;;;13.77;;
29984;SDS011;17387;42.690;23.328;2022-12-24T15:38:35;23.20;;;14.30;;
29984;SDS011;17387;42.690;23.328;2022-12-24T15:41:04;21.75;;;13.27;;
29984;SDS011;17387;42.690;23.328;2022-12-24T15:43:38;25.08;;;14.02;;
29984;SDS011;17387;42.690;23.328;2022-12-24T15:46:04;25.52;;;15.45;;
29984;SDS011;17387;42.690;23.328;2022-12-24T15:48:30;26.83;;;16.00;;
29984;SDS011;17387;42.690;23.328;2022-12-24T15:50:57;30.33;;;17.75;;
29984;SDS011;17387;42.690;23.328;2022-12-24T15:53:33;31.20;;;18.38;;
29984;SDS011;17387;42.690;23.328;2022-12-24T15:58:51;30.05;;;17.23;;
29984;SDS011;17387;42.690;23.328;2022-12-24T16:06:16;28.15;;;16.85;;
29984;SDS011;17387;42.690;23.328;2022-12-24T16:08:42;27.45;;;18.08;;
29984;SDS011;17387;42.690;23.328;2022-12-24T16:16:14;31.30;;;18.45;;
29984;SDS011;17387;42.690;23.328;2022-12-24T16:18:59;30.17;;;17.90;;
29984;SDS011;17387;42.690;23.328;2022-12-24T16:21:35;26.48;;;16.10;;
29984;SDS011;17387;42.690;23.328;2022-12-24T16:24:06;28.45;;;16.40;;
29984;SDS011;17387;42.690;23.328;2022-12-24T16:26:44;26.70;;;13.60;;
29984;SDS011;17387;42.690;23.328;2022-12-24T16:29:12;18.35;;;10.95;;
29984;SDS011;17387;42.690;23.328;2022-12-24T16:31:42;19.85;;;11.77;;
29984;SDS011;17387;42.690;23.328;2022-12-24T16:34:11;23.70;;;14.43;;
29984;SDS011;17387;42.690;23.328;2022-12-24T16:36:39;22.25;;;14.07;;
29984;SDS011;17387;42.690;23.328;2022-12-24T16:39:15;29.13;;;15.13;;
29984;SDS011;17387;42.690;23.328;2022-12-24T16:41:50;22.00;;;14.82;;
29984;SDS011;17387;42.690;23.328;2022-12-24T16:44:35;30.48;;;15.13;;
29984;SDS011;17387;42.690;23.328;2022-12-24T16:47:01;28.00;;;15.25;;
29984;SDS011;17387;42.690;23.328;2022-12-24T16:49:29;24.75;;;15.52;;
29984;SDS011;17387;42.690;23.328;2022-12-24T16:51:54;24.95;;;16.10;;
29984;SDS011;17387;42.690;23.328;2022-12-24T16:54:20;25.10;;;15.82;;
29984;SDS011;17387;42.690;23.328;2022-12-24T16:56:45;28.23;;;16.70;;
29984;SDS011;17387;42.690;23.328;2022-12-24T16:59:18;30.50;;;17.40;;
29984;SDS011;17387;42.690;23.328;2022-12-24T17:01:45;29.40;;;17.08;;
29984;SDS011;17387;42.690;23.328;2022-12-24T17:04:13;27.40;;;17.55;;
29984;SDS011;17387;42.690;23.328;2022-12-24T17:06:39;29.38;;;17.60;;
29984;SDS011;17387;42.690;23.328;2022-12-24T17:09:06;31.60;;;19.23;;
29984;SDS011;17387;42.690;23.328;2022-12-24T17:11:33;27.50;;;16.25;;
29984;SDS011;17387;42.690;23.328;2022-12-24T17:13:59;31.60;;;16.00;;
29984;SDS011;17387;42.690;23.328;2022-12-24T17:16:25;24.90;;;16.15;;
29984;SDS011;17387;42.690;23.328;2022-12-24T17:18:50;24.25;;;15.50;;
29984;SDS011;17387;42.690;23.328;2022-12-24T17:21:16;26.77;;;16.08;;
29984;SDS011;17387;42.690;23.328;2022-12-24T17:23:42;21.73;;;14.55;;